Time;durP1;ratioP1;P1;durP2;ratioP2;P2;SDS_P1;SDS_P2;PMS_P1;PMS_P2;Temp;Humidity;BMP_temperature;BMP_pressure;BME280_temperature;BME280_humidity;BME280_pressure;Samples;Min_cycle;Max_cycle;Signal;HPM_P1;HPM_P2
2023/06/12 00:00:09;;;;;;;4.03;2.58;;;;;;;22.74;58.28;100078.41;5092054;28;20052;-68
2023/06/12 00:02:38;;;;;;;4.33;2.70;;;;;;;22.74;58.35;100083.84;5092155;28;20046;-69
2023/06/12 00:05:08;;;;;;;4.13;2.55;;;;;;;22.74;57.92;100081.13;5092126;28;20198;-68
2023/06/12 00:07:36;;;;;;;3.38;2.33;;;;;;;22.74;57.96;100081.13;5091923;28;20481;-68
2023/06/12 00:10:05;;;;;;;3.65;2.40;;;;;;;22.75;58.18;100079.25;5091899;28;20055;-68
2023/06/12 00:12:35;;;;;;;4.68;2.65;;;;;;;22.76;57.83;100078.22;5091499;28;20051;-68
2023/06/12 00:15:03;;;;;;;5.80;2.90;;;;;;;22.77;58.24;100072.59;5091784;28;20047;-68
2023/06/12 00:17:33;;;;;;;4.20;2.50;;;;;;;22.76;58.13;100075.50;5092003;28;20048;-68
2023/06/12 00:20:04;;;;;;;5.50;2.80;;;;;;;22.75;58.07;100062.94;5091849;28;20051;-69
2023/06/12 00:22:39;;;;;;;4.95;2.50;;;;;;;22.74;58.45;100061.25;5091642;28;20052;-69
2023/06/12 00:25:08;;;;;;;3.90;2.38;;;;;;;22.72;58.06;100053.28;5091927;28;20074;-69
2023/06/12 00:27:36;;;;;;;4.80;2.45;;;;;;;22.71;58.11;100054.28;5091808;28;20047;-69
2023/06/12 00:30:06;;;;;;;4.20;2.80;;;;;;;22.71;57.97;100067.88;5091486;28;20510;-68
2023/06/12 00:32:36;;;;;;;3.38;2.30;;;;;;;22.70;58.07;100062.63;5091528;28;20063;-68
2023/06/12 00:35:05;;;;;;;5.13;2.40;;;;;;;22.64;57.99;100056.00;5091461;28;20105;-68
2023/06/12 00:37:34;;;;;;;4.63;2.83;;;;;;;22.67;57.77;100061.09;5091658;28;20935;-68
2023/06/12 00:40:03;;;;;;;4.68;2.50;;;;;;;22.67;57.83;100061.09;5091678;28;20052;-68
2023/06/12 00:42:33;;;;;;;4.60;2.72;;;;;;;22.65;58.14;100052.25;5091612;28;20455;-69
2023/06/12 00:45:02;;;;;;;6.72;2.70;;;;;;;22.65;58.01;100062.28;5091471;28;20048;-68
2023/06/12 00:47:31;;;;;;;4.45;2.45;;;;;;;22.63;58.22;100059.75;5091299;28;20048;-68
2023/06/12 00:50:01;;;;;;;4.03;2.78;;;;;;;22.61;58.23;100050.94;5091288;28;20044;-68
2023/06/12 00:52:34;;;;;;;6.03;2.45;;;;;;;22.60;58.36;100054.69;5091502;28;20056;-68
2023/06/12 00:55:04;;;;;;;4.00;2.63;;;;;;;22.61;57.84;100053.66;5091299;28;20044;-68
2023/06/12 00:57:33;;;;;;;3.35;2.20;;;;;;;22.61;57.66;100059.09;5091310;28;20048;-68
2023/06/12 01:00:04;;;;;;;3.63;2.25;;;;;;;22.62;57.70;100052.63;5091220;28;20079;-68
2023/06/12 01:02:33;;;;;;;3.45;2.40;;;;;;;22.61;57.84;100050.94;5091008;28;20098;-68
2023/06/12 01:05:05;;;;;;;3.90;2.58;;;;;;;22.58;58.32;100051.25;5091438;28;20127;-68
2023/06/12 01:07:43;;;;;;;6.43;2.70;;;;;;;22.58;58.28;100056.69;5091266;28;20131;-68
2023/06/12 01:10:16;;;;;;;4.25;2.47;;;;;;;22.55;57.80;100051.63;5091150;28;20044;-68
2023/06/12 01:12:45;;;;;;;3.47;2.33;;;;;;;22.54;57.81;100052.66;5091065;28;20048;-69
2023/06/12 01:15:14;;;;;;;4.45;2.45;;;;;;;22.52;58.02;100050.09;5091108;28;20047;-68
2023/06/12 01:17:42;;;;;;;4.43;2.50;;;;;;;22.52;57.48;100051.97;5091092;28;20557;-68
2023/06/12 01:20:13;;;;;;;4.38;2.65;;;;;;;22.50;57.41;100049.44;5091078;28;20362;-68
2023/06/12 01:22:51;;;;;;;3.50;2.35;;;;;;;22.49;57.36;100052.34;5091308;28;20143;-68
2023/06/12 01:25:46;;;;;;;4.90;2.38;;;;;;;22.48;57.28;100053.31;5094662;28;20432;-68
2023/06/12 01:28:37;;;;;;;3.70;2.50;;;;;;;22.47;56.93;100049.75;5094926;28;20504;-68
2023/06/12 01:31:14;;;;;;;4.18;2.53;;;;;;;22.47;57.57;100046.19;5094980;28;20105;-68
2023/06/12 01:33:50;;;;;;;4.20;2.80;;;;;;;22.45;57.33;100046.38;5094710;28;20139;-68
2023/06/12 01:36:24;;;;;;;4.05;2.58;;;;;;;22.45;57.78;100043.66;5094951;28;20051;-68
2023/06/12 01:38:57;;;;;;;4.70;2.60;;;;;;;22.43;57.57;100043.00;5094972;28;20047;-68
2023/06/12 01:41:28;;;;;;;3.92;2.40;;;;;;;22.42;57.42;100052.16;5094669;28;20097;-69
2023/06/12 01:43:56;;;;;;;3.83;2.50;;;;;;;22.42;58.13;100045.88;5094666;28;20070;-69
2023/06/12 01:46:24;;;;;;;3.38;2.30;;;;;;;22.41;57.41;100049.63;5094491;28;20043;-69
2023/06/12 01:48:54;;;;;;;4.45;2.70;;;;;;;22.40;57.12;100043.34;5094833;28;20158;-68
2023/06/12 01:51:22;;;;;;;4.28;2.60;;;;;;;22.40;57.21;100037.06;5094607;28;20044;-68
2023/06/12 01:53:51;;;;;;;4.10;2.50;;;;;;;22.40;57.64;100042.50;5094425;28;20043;-68
2023/06/12 01:56:24;;;;;;;3.90;2.35;;;;;;;22.39;57.48;100038.06;5094471;28;20123;-68
2023/06/12 01:58:52;;;;;;;4.38;2.60;;;;;;;22.38;57.25;100044.53;5094410;28;20071;-68
2023/06/12 02:01:23;;;;;;;4.43;2.30;;;;;;;22.37;57.43;100050.97;5094703;28;20131;-68
2023/06/12 02:03:56;;;;;;;4.53;2.60;;;;;;;22.36;57.43;100052.00;5094508;28;20102;-68
2023/06/12 02:06:25;;;;;;;4.20;2.42;;;;;;;22.35;57.37;100047.59;5094410;28;20075;-68
2023/06/12 02:08:53;;;;;;;3.70;2.47;;;;;;;22.33;57.85;100044.22;5094113;28;20100;-68
2023/06/12 02:11:22;;;;;;;3.63;2.72;;;;;;;22.32;56.92;100047.94;5093946;28;20401;-68
2023/06/12 02:13:50;;;;;;;4.22;2.60;;;;;;;22.31;57.46;100046.25;5094343;28;20064;-68
2023/06/12 02:16:21;;;;;;;3.72;2.55;;;;;;;22.29;57.23;100046.41;5094304;28;20146;-68
2023/06/12 02:18:49;;;;;;;3.70;2.50;;;;;;;22.27;57.19;100049.28;5094030;28;20051;-68
2023/06/12 02:21:19;;;;;;;3.58;2.40;;;;;;;22.27;56.91;100041.16;5093899;28;20040;-68
2023/06/12 02:23:47;;;;;;;4.25;2.40;;;;;;;22.26;57.01;100044.88;5093926;28;20044;-69
2023/06/12 02:26:16;;;;;;;3.78;2.28;;;;;;;22.25;57.60;100054.06;5093990;28;20132;-69
2023/06/12 02:28:44;;;;;;;4.13;2.53;;;;;;;22.24;57.13;100052.38;5093929;28;20505;-68
2023/06/12 02:31:12;;;;;;;3.97;2.70;;;;;;;22.23;57.12;100042.53;5093858;28;20051;-68
2023/06/12 02:33:40;;;;;;;4.13;2.72;;;;;;;22.23;57.17;100052.53;5093806;28;20051;-68
2023/06/12 02:36:08;;;;;;;4.45;2.70;;;;;;;22.23;57.31;100049.81;5092381;28;20056;-68
2023/06/12 02:38:38;;;;;;;3.33;2.40;;;;;;;22.22;57.01;100050.84;5093562;28;20048;-68
2023/06/12 02:41:12;;;;;;;4.00;2.33;;;;;;;22.21;57.27;100047.28;5093730;28;20052;-68
2023/06/12 02:43:40;;;;;;;5.13;2.70;;;;;;;22.21;57.22;100054.59;5093647;28;20083;-68
2023/06/12 02:46:11;;;;;;;3.40;2.60;;;;;;;22.21;57.28;100060.88;5093570;28;20044;-68
2023/06/12 02:48:39;;;;;;;5.15;2.53;;;;;;;22.20;57.06;100056.47;5093495;28;20055;-68
2023/06/12 02:51:08;;;;;;;4.28;2.70;;;;;;;22.20;57.40;100059.19;5093384;28;20048;-68
2023/06/12 02:53:36;;;;;;;4.07;2.67;;;;;;;22.18;57.25;100058.47;5093311;28;20040;-67
2023/06/12 02:56:05;;;;;;;4.70;2.92;;;;;;;22.18;57.75;100063.91;5093344;28;20146;-67
2023/06/12 02:58:34;;;;;;;4.75;2.90;;;;;;;22.16;57.28;100060.53;5093164;28;20484;-67
2023/06/12 03:01:04;;;;;;;4.47;2.70;;;;;;;22.14;56.76;100059.84;5093255;28;20047;-68
2023/06/12 03:03:32;;;;;;;4.05;2.63;;;;;;;22.15;56.97;100063.41;5092955;28;20469;-68
2023/06/12 03:06:00;;;;;;;4.18;2.60;;;;;;;22.14;57.11;100062.56;5093101;28;20143;-68
2023/06/12 03:08:28;;;;;;;4.07;2.60;;;;;;;22.13;56.64;100069.03;5092872;28;20555;-67
2023/06/12 03:10:57;;;;;;;4.97;2.25;;;;;;;22.11;56.93;100065.63;5093232;28;20040;-68
2023/06/12 03:13:27;;;;;;;4.40;2.55;;;;;;;22.11;56.66;100071.06;5093126;28;20101;-67
2023/06/12 03:15:55;;;;;;;4.18;2.70;;;;;;;22.11;56.79;100071.06;5092838;28;20044;-68
2023/06/12 03:18:23;;;;;;;4.15;2.75;;;;;;;22.10;57.14;100069.38;5092855;28;20400;-68
2023/06/12 03:20:52;;;;;;;3.38;2.38;;;;;;;22.09;56.85;100062.22;5093040;28;20048;-68
2023/06/12 03:23:20;;;;;;;4.53;3.10;;;;;;;22.07;56.60;100058.84;5092876;28;20048;-68
2023/06/12 03:25:48;;;;;;;5.03;3.00;;;;;;;22.06;56.79;100067.97;5092965;28;20055;-69
2023/06/12 03:28:16;;;;;;;4.68;2.90;;;;;;;22.06;56.65;100067.97;5092852;28;20416;-68
2023/06/12 03:30:46;;;;;;;4.38;2.83;;;;;;;22.05;56.58;100068.16;5092698;28;20044;-68
2023/06/12 03:33:14;;;;;;;4.10;2.63;;;;;;;22.04;57.08;100058.31;5092499;28;20056;-68
2023/06/12 03:35:42;;;;;;;4.35;2.75;;;;;;;22.03;56.96;100057.47;5092552;28;20052;-68
2023/06/12 03:38:11;;;;;;;4.47;2.97;;;;;;;22.03;57.20;100057.47;5092600;28;20047;-68
2023/06/12 03:40:39;;;;;;;4.15;2.78;;;;;;;22.02;56.89;100061.19;5092540;28;20130;-68
2023/06/12 03:43:07;;;;;;;3.67;2.70;;;;;;;22.02;56.70;100066.63;5092663;28;20075;-68
2023/06/12 03:45:35;;;;;;;3.80;2.60;;;;;;;22.03;56.40;100067.47;5092311;28;20131;-68
2023/06/12 03:48:06;;;;;;;4.63;2.90;;;;;;;22.03;57.21;100079.19;5091903;28;20044;-68
2023/06/12 03:50:34;;;;;;;5.47;2.70;;;;;;;22.03;56.61;100073.75;5092478;28;20048;-68
2023/06/12 03:53:02;;;;;;;4.13;2.67;;;;;;;22.02;56.41;100074.78;5092398;28;20044;-68
2023/06/12 03:55:30;;;;;;;4.53;2.90;;;;;;;22.02;56.69;100077.50;5091979;28;20055;-68
2023/06/12 03:57:58;;;;;;;4.22;2.90;;;;;;;22.02;56.76;100066.63;5092074;28;20492;-68
2023/06/12 04:00:26;;;;;;;4.38;2.80;;;;;;;22.02;56.36;100076.66;5091930;28;20412;-68
2023/06/12 04:02:55;;;;;;;4.97;2.90;;;;;;;22.03;57.00;100078.34;5092079;28;20044;-68
2023/06/12 04:05:26;;;;;;;5.07;2.85;;;;;;;22.03;56.89;100079.19;5092027;28;20052;-68
2023/06/12 04:07:54;;;;;;;5.80;3.08;;;;;;;22.05;57.09;100071.72;5091784;28;20055;-68
2023/06/12 04:10:22;;;;;;;4.30;2.70;;;;;;;22.05;56.54;100070.88;5091789;28;20493;-68
2023/06/12 04:12:50;;;;;;;3.58;2.58;;;;;;;22.05;56.76;100077.16;5091648;28;20082;-68
2023/06/12 04:15:19;;;;;;;3.97;2.58;;;;;;;22.06;56.84;100067.97;5091917;28;20048;-68
2023/06/12 04:17:47;;;;;;;4.47;2.80;;;;;;;22.06;56.88;100061.69;5091953;28;20101;-68
2023/06/12 04:20:15;;;;;;;4.82;3.08;;;;;;;22.06;57.06;100067.13;5091777;28;20080;-68
2023/06/12 04:22:47;;;;;;;4.68;2.70;;;;;;;22.06;57.00;100065.25;5091474;28;20139;-68
2023/06/12 04:25:15;;;;;;;3.92;2.47;;;;;;;22.06;57.23;100067.97;5091633;28;20048;-68
2023/06/12 04:27:44;;;;;;;4.07;2.70;;;;;;;22.07;57.15;100072.41;5091686;28;20040;-69
2023/06/12 04:30:15;;;;;;;4.15;2.65;;;;;;;22.08;56.89;100063.25;5091693;28;20072;-68
2023/06/12 04:32:44;;;;;;;4.13;2.78;;;;;;;22.07;56.95;100069.69;5091785;28;20040;-67
2023/06/12 04:35:12;;;;;;;4.32;2.90;;;;;;;22.08;56.94;100070.53;5091396;28;20121;-67
2023/06/12 04:37:41;;;;;;;4.05;2.80;;;;;;;22.08;56.87;100065.97;5091612;28;20463;-67
2023/06/12 04:40:12;;;;;;;4.10;2.90;;;;;;;22.10;57.23;100072.09;5091448;28;20523;-67
2023/06/12 04:42:41;;;;;;;3.38;2.65;;;;;;;22.11;57.15;100075.66;5091530;28;20048;-66
2023/06/12 04:45:12;;;;;;;5.68;2.90;;;;;;;22.10;56.49;100073.94;5091498;28;20139;-66
2023/06/12 04:47:42;;;;;;;4.18;2.60;;;;;;;22.10;56.77;100074.81;5091415;28;20040;-67
2023/06/12 04:50:11;;;;;;;5.40;2.70;;;;;;;22.12;57.12;100075.47;5091448;28;20052;-67
2023/06/12 04:52:40;;;;;;;4.03;2.60;;;;;;;22.14;57.06;100078.88;5091718;28;20044;-67
2023/06/12 04:55:09;;;;;;;4.40;2.70;;;;;;;22.15;57.08;100077.84;5091030;28;20067;-67
2023/06/12 04:57:39;;;;;;;4.85;2.78;;;;;;;22.14;56.94;100081.59;5091161;28;20409;-70
2023/06/12 05:00:10;;;;;;;5.50;2.75;;;;;;;22.14;56.90;100078.88;5094602;28;20082;-66
2023/06/12 05:02:42;;;;;;;3.90;2.50;;;;;;;22.16;57.10;100079.53;5095354;28;20365;-67
2023/06/12 05:05:10;;;;;;;4.85;2.70;;;;;;;22.16;57.30;100079.53;5095463;28;20130;-68
2023/06/12 05:07:41;;;;;;;3.72;2.47;;;;;;;22.18;57.30;100077.50;5095065;28;20508;-67
2023/06/12 05:10:10;;;;;;;4.90;3.00;;;;;;;22.21;56.98;100084.47;5095573;28;20048;-69
2023/06/12 05:12:40;;;;;;;4.05;2.75;;;;;;;22.22;57.16;100078.88;5095012;28;20537;-68
2023/06/12 05:15:09;;;;;;;4.60;2.78;;;;;;;22.21;56.84;100082.59;5095223;28;20052;-69
2023/06/12 05:17:38;;;;;;;3.83;2.75;;;;;;;22.20;56.79;100083.63;5095000;28;20048;-67
2023/06/12 05:20:08;;;;;;;4.47;2.60;;;;;;;22.21;56.69;100082.59;5095149;28;20052;-67
2023/06/12 05:22:37;;;;;;;5.03;2.63;;;;;;;22.21;57.08;100077.19;5096122;28;20103;-64
2023/06/12 05:25:09;;;;;;;6.45;3.00;;;;;;;22.24;57.55;100076.81;5094895;28;20076;-67
2023/06/12 05:27:37;;;;;;;6.70;2.85;;;;;;;22.26;57.61;100079.34;5094729;28;20131;-67
2023/06/12 05:30:10;;;;;;;5.72;3.22;;;;;;;22.25;57.76;100075.78;5094696;28;20481;-67
2023/06/12 05:32:39;;;;;;;8.82;2.92;;;;;;;22.26;57.89;100080.22;5094761;28;20044;-68
2023/06/12 05:35:08;;;;;;;7.80;3.10;;;;;;;22.28;58.28;100082.75;5094468;28;20574;-67
2023/06/12 05:37:37;;;;;;;4.97;3.20;;;;;;;22.31;58.50;100084.28;5094103;28;20055;-68
2023/06/12 05:40:09;;;;;;;5.05;3.13;;;;;;;22.28;57.73;100089.03;5094446;28;20071;-66
2023/06/12 05:42:37;;;;;;;6.70;3.25;;;;;;;22.27;57.08;100084.63;5094549;28;20047;-68
2023/06/12 05:45:07;;;;;;;5.72;2.78;;;;;;;22.27;56.86;100084.63;5094756;28;20383;-66
2023/06/12 05:47:37;;;;;;;10.07;3.20;;;;;;;22.27;57.14;100084.63;5094588;28;20113;-67
2023/06/12 05:50:06;;;;;;;6.35;2.97;;;;;;;22.28;57.21;100083.59;5094386;28;20104;-66
2023/06/12 05:52:35;;;;;;;5.32;2.80;;;;;;;22.30;57.41;100079.88;5094216;28;20124;-66
2023/06/12 05:55:08;;;;;;;6.03;2.80;;;;;;;22.33;57.83;100095.84;5093971;28;20457;-66
2023/06/12 05:57:37;;;;;;;4.97;3.15;;;;;;;22.35;57.79;100099.22;5094427;28;20044;-67
2023/06/12 06:00:07;;;;;;;4.45;2.85;;;;;;;22.36;57.84;100098.19;5094245;28;20101;-67
2023/06/12 06:02:38;;;;;;;5.85;2.85;;;;;;;22.37;57.69;100097.16;5094195;28;20048;-67
2023/06/12 06:05:09;;;;;;;4.53;2.75;;;;;;;22.39;57.84;100106.00;5094288;28;20048;-67
2023/06/12 06:07:38;;;;;;;5.82;2.80;;;;;;;22.40;57.32;100096.84;5093854;28;20524;-66
2023/06/12 06:10:07;;;;;;;5.47;2.67;;;;;;;22.39;57.06;100101.44;5093735;28;20048;-66
2023/06/12 06:12:35;;;;;;;5.38;2.90;;;;;;;22.41;57.20;100098.53;5094111;28;20048;-66
2023/06/12 06:15:04;;;;;;;4.75;2.58;;;;;;;22.42;57.38;100097.53;5094134;28;20048;-67
2023/06/12 06:17:32;;;;;;;6.13;2.83;;;;;;;22.41;56.92;100107.53;5093586;28;20048;-66
2023/06/12 06:20:02;;;;;;;5.22;2.53;;;;;;;22.40;55.93;100096.84;5093904;28;20087;-66
2023/06/12 06:22:31;;;;;;;4.60;2.60;;;;;;;22.38;55.56;100098.88;5093715;28;20051;-68
2023/06/12 06:24:59;;;;;;;5.63;2.65;;;;;;;22.38;56.14;100098.88;5092132;28;20051;-66
2023/06/12 06:27:28;;;;;;;4.95;2.65;;;;;;;22.39;56.58;100100.56;5091742;28;20054;-67
2023/06/12 06:29:56;;;;;;;5.35;2.60;;;;;;;22.41;56.67;100093.09;5092074;28;20485;-67
2023/06/12 06:32:25;;;;;;;4.68;2.63;;;;;;;22.39;55.99;100095.13;5091969;28;20044;-67
2023/06/12 06:34:53;;;;;;;5.53;2.75;;;;;;;22.32;51.37;100096.84;5092530;28;20048;-65
2023/06/12 06:37:23;;;;;;;6.47;2.70;;;;;;;22.24;50.56;100093.13;5092219;28;20055;-66
2023/06/12 06:39:51;;;;;;;8.27;2.90;;;;;;;22.19;49.67;100100.06;5092875;28;20074;-65
2023/06/12 06:42:19;;;;;;;5.20;2.60;;;;;;;22.15;49.46;100104.16;5093550;28;20074;-66
2023/06/12 06:44:49;;;;;;;9.35;3.28;;;;;;;22.13;50.47;100112.50;5093584;28;20108;-66
2023/06/12 06:47:17;;;;;;;7.15;2.72;;;;;;;22.12;49.31;100104.50;5093340;28;20051;-66
2023/06/12 06:49:45;;;;;;;8.20;3.33;;;;;;;22.12;49.83;100110.78;5093388;28;20421;-66
2023/06/12 06:52:13;;;;;;;9.02;2.95;;;;;;;22.11;49.76;100102.81;5093641;28;20109;-66
2023/06/12 06:54:42;;;;;;;10.30;3.20;;;;;;;22.10;48.38;100101.97;5093209;28;20507;-66
2023/06/12 06:57:11;;;;;;;9.15;3.15;;;;;;;22.12;49.28;100105.34;5093141;28;20117;-67
2023/06/12 06:59:39;;;;;;;8.38;3.53;;;;;;;22.15;50.25;100104.16;5091938;28;20040;-66
2023/06/12 07:02:07;;;;;;;7.97;3.25;;;;;;;22.17;50.61;100111.13;5091517;28;20056;-65
2023/06/12 07:04:35;;;;;;;14.88;3.47;;;;;;;22.20;51.45;100108.06;5095459;28;20048;-64
2023/06/12 07:07:04;;;;;;;11.05;4.00;;;;;;;22.21;51.22;100115.22;5091924;28;20114;-65
2023/06/12 07:09:32;;;;;;;10.52;3.70;;;;;;;22.22;50.96;100107.91;5089700;28;20125;-65
2023/06/12 07:12:02;;;;;;;9.55;3.17;;;;;;;22.21;52.07;100112.50;5092530;28;20044;-66
2023/06/12 07:14:30;;;;;;;9.50;3.60;;;;;;;22.24;52.12;100103.13;5091699;28;20048;-65
2023/06/12 07:16:58;;;;;;;9.65;3.85;;;;;;;22.25;51.47;100104.84;5091440;28;20489;-66
2023/06/12 07:19:26;;;;;;;13.13;4.03;;;;;;;22.27;51.73;100114.50;5093063;28;20086;-66
2023/06/12 07:21:54;;;;;;;10.95;3.65;;;;;;;22.28;51.93;100101.75;5091907;28;20056;-65
2023/06/12 07:24:23;;;;;;;7.55;3.40;;;;;;;22.30;51.64;100107.91;5092771;28;20130;-65
2023/06/12 07:26:52;;;;;;;12.38;3.58;;;;;;;22.32;51.76;100107.72;5092539;28;20497;-66
2023/06/12 07:29:23;;;;;;;10.00;3.47;;;;;;;22.31;51.37;100087.00;5092572;28;20767;-65
2023/06/12 07:31:52;;;;;;;9.15;3.08;;;;;;;22.32;51.33;100100.41;5092531;28;20496;-65
2023/06/12 07:34:20;;;;;;;10.15;3.30;;;;;;;22.32;50.45;100102.28;5092319;28;20143;-65
2023/06/12 07:36:48;;;;;;;7.88;3.13;;;;;;;22.31;51.62;100095.16;5092523;28;20051;-64
2023/06/12 07:39:16;;;;;;;8.85;2.88;;;;;;;22.32;51.85;100099.56;5092270;28;20401;-64
2023/06/12 07:41:45;;;;;;;7.85;2.75;;;;;;;22.32;50.73;100099.56;5092246;28;20077;-64
2023/06/12 07:44:13;;;;;;;9.43;3.28;;;;;;;22.33;50.94;100101.28;5092626;28;20059;-64
2023/06/12 07:46:44;;;;;;;9.77;3.35;;;;;;;22.33;51.19;100095.84;5092292;28;20130;-64
2023/06/12 07:49:14;;;;;;;6.53;3.10;;;;;;;22.32;49.96;100096.84;5092298;28;20056;-64
2023/06/12 07:51:45;;;;;;;9.68;3.30;;;;;;;22.33;51.50;100101.28;5092072;28;20063;-64
2023/06/12 07:54:13;;;;;;;7.32;3.35;;;;;;;22.34;51.10;100105.69;5091890;28;20052;-64
2023/06/12 07:56:42;;;;;;;8.98;3.10;;;;;;;22.35;50.98;100099.22;5091252;28;20052;-65
2023/06/12 07:59:12;;;;;;;7.90;3.13;;;;;;;22.35;50.58;100099.22;5092072;28;20135;-64
2023/06/12 08:01:40;;;;;;;5.57;3.10;;;;;;;22.36;50.53;100092.75;5091694;28;20515;-64
2023/06/12 08:04:10;;;;;;;7.28;2.88;;;;;;;22.38;51.04;100098.88;5091763;28;20040;-64
2023/06/12 08:06:40;;;;;;;9.15;2.88;;;;;;;22.39;51.04;100100.56;5091817;28;20036;-64
2023/06/12 08:09:10;;;;;;;5.78;2.90;;;;;;;22.38;50.65;100099.72;5091629;28;20105;-64
2023/06/12 08:11:39;;;;;;;5.20;2.67;;;;;;;22.38;50.56;100099.72;5091844;28;20079;-64
2023/06/12 08:14:07;;;;;;;5.03;2.50;;;;;;;22.38;51.07;100094.28;5091574;28;20512;-64
2023/06/12 08:16:35;;;;;;;6.22;2.85;;;;;;;22.37;50.27;100089.03;5091596;28;20139;-64
2023/06/12 08:19:03;;;;;;;7.13;2.60;;;;;;;22.39;50.42;100097.84;5091387;28;20048;-65
2023/06/12 08:21:33;;;;;;;7.40;2.92;;;;;;;22.40;50.40;100094.13;5091451;28;20048;-64
2023/06/12 08:24:01;;;;;;;4.95;2.58;;;;;;;22.41;49.88;100093.97;5091794;28;20376;-64
2023/06/12 08:26:30;;;;;;;7.72;2.75;;;;;;;22.41;49.88;100099.41;5091284;28;20552;-64
2023/06/12 08:28:58;;;;;;;6.93;2.83;;;;;;;22.40;50.58;100099.56;5091411;28;20044;-65
2023/06/12 08:31:27;;;;;;;5.22;2.33;;;;;;;22.39;50.97;100096.00;5091621;28;20044;-64
2023/06/12 08:33:56;;;;;;;8.10;3.22;;;;;;;22.40;50.43;100099.56;5091155;28;20067;-64
2023/06/12 08:36:24;;;;;;;6.88;2.70;;;;;;;22.42;49.61;100102.97;5091354;28;20080;-64
2023/06/12 08:38:54;;;;;;;4.80;2.78;;;;;;;22.43;49.87;100091.06;5091518;28;20055;-64
2023/06/12 08:41:26;;;;;;;5.38;2.75;;;;;;;22.43;49.72;100091.06;5091335;28;20050;-65
2023/06/12 08:43:59;;;;;;;4.30;2.28;;;;;;;22.45;49.18;100091.72;5091359;28;20091;-65
2023/06/12 08:46:30;;;;;;;5.30;2.70;;;;;;;22.44;49.02;100088.16;5091189;28;20123;-65
2023/06/12 08:49:00;;;;;;;5.88;2.40;;;;;;;22.46;48.80;100096.13;5091246;28;20044;-65
2023/06/12 08:51:30;;;;;;;5.57;2.50;;;;;;;22.47;49.17;100103.28;5091317;28;20795;-64
2023/06/12 08:54:01;;;;;;;6.18;2.63;;;;;;;22.48;49.05;100097.66;5091268;28;20047;-64
2023/06/12 08:56:31;;;;;;;5.55;2.30;;;;;;;22.49;48.63;100101.25;5091244;28;20138;-64
2023/06/12 08:59:00;;;;;;;4.00;2.30;;;;;;;22.51;49.15;100099.19;5091101;28;20091;-64
2023/06/12 09:01:29;;;;;;;5.43;2.63;;;;;;;22.52;48.99;100101.75;5091076;28;20048;-64
2023/06/12 09:04:01;;;;;;;6.47;2.40;;;;;;;22.53;49.01;100097.16;5091179;28;20048;-65
2023/06/12 09:06:36;;;;;;;6.22;2.28;;;;;;;22.53;48.89;100097.16;5091454;28;20056;-65
2023/06/12 09:09:06;;;;;;;5.78;2.30;;;;;;;22.54;48.54;100099.69;5091187;28;20056;-64
2023/06/12 09:11:36;;;;;;;5.75;2.33;;;;;;;22.55;48.86;100101.38;5091008;28;20044;-64
2023/06/12 09:14:04;;;;;;;4.20;2.03;;;;;;;22.56;48.37;100102.22;5091174;28;20048;-64
2023/06/12 09:16:33;;;;;;;6.00;2.38;;;;;;;22.58;48.38;100094.75;5090933;28;20086;-65
2023/06/12 09:19:01;;;;;;;5.78;2.50;;;;;;;22.58;48.21;100097.47;5090857;28;20109;-66
2023/06/12 09:21:29;;;;;;;5.75;2.53;;;;;;;22.60;48.05;100092.72;5090989;28;20052;-64
2023/06/12 09:23:58;;;;;;;4.60;2.20;;;;;;;22.61;47.86;100090.84;5090809;28;20040;-63
2023/06/12 09:26:27;;;;;;;4.43;2.38;;;;;;;22.64;48.59;100094.06;5090758;28;20051;-66
2023/06/12 09:28:56;;;;;;;4.68;2.50;;;;;;;22.65;48.65;100095.75;5090808;28;20051;-64
2023/06/12 09:31:24;;;;;;;5.65;2.53;;;;;;;22.66;48.67;100089.28;5090738;28;20456;-65
2023/06/12 09:33:53;;;;;;;3.83;2.17;;;;;;;22.69;48.70;100102.56;5090860;28;20350;-64
2023/06/12 09:36:27;;;;;;;5.13;2.42;;;;;;;22.70;48.77;100106.97;5090923;28;20052;-65
2023/06/12 09:38:55;;;;;;;4.85;2.20;;;;;;;22.71;48.61;100103.22;5090893;28;20052;-65
2023/06/12 09:41:24;;;;;;;3.92;2.30;;;;;;;22.72;48.78;100099.47;5090749;28;20504;-64
2023/06/12 09:44:02;;;;;;;4.70;2.33;;;;;;;22.74;48.84;100088.44;5090918;28;20135;-65
2023/06/12 09:46:31;;;;;;;4.18;2.35;;;;;;;22.74;48.55;100089.28;5094519;28;20052;-64
2023/06/12 09:49:00;;;;;;;5.18;2.40;;;;;;;22.77;48.87;100102.50;5094560;28;20052;-65
2023/06/12 09:51:48;;;;;;;3.90;2.13;;;;;;;22.78;48.74;100096.09;5094537;28;20059;-65
2023/06/12 09:54:18;;;;;;;5.22;2.28;;;;;;;22.77;48.67;100101.66;5094354;28;20052;-65
2023/06/12 09:56:48;;;;;;;5.32;2.03;;;;;;;22.78;48.52;100093.38;5094486;28;20067;-65
2023/06/12 09:59:18;;;;;;;4.68;2.22;;;;;;;22.80;48.56;100091.31;5094293;28;20566;-65
2023/06/12 10:01:48;;;;;;;4.47;2.30;;;;;;;22.81;48.84;100090.28;5094165;28;20056;-66
2023/06/12 10:04:23;;;;;;;4.10;2.00;;;;;;;22.85;49.03;100088.09;5094309;28;20052;-65
2023/06/12 10:06:56;;;;;;;3.25;1.83;;;;;;;22.88;49.14;100093.19;5094146;28;20149;-64
2023/06/12 10:09:25;;;;;;;7.70;2.42;;;;;;;22.91;48.87;100091.97;5094329;28;20044;-64
2023/06/12 10:11:55;;;;;;;4.25;2.08;;;;;;;22.92;48.62;100093.69;5094084;28;20055;-64
2023/06/12 10:14:26;;;;;;;5.10;2.30;;;;;;;22.93;48.44;100087.22;5094079;28;20136;-64
2023/06/12 10:16:57;;;;;;;4.88;1.90;;;;;;;22.95;48.89;100079.72;5094135;28;20044;-64
2023/06/12 10:19:26;;;;;;;5.60;2.10;;;;;;;22.97;49.16;100081.25;5094068;28;20051;-64
2023/06/12 10:21:55;;;;;;;2.90;1.80;;;;;;;22.98;49.44;100082.94;5093816;28;20046;-65
2023/06/12 10:24:24;;;;;;;3.95;2.38;;;;;;;22.97;49.80;100083.97;5094010;28;20412;-65
2023/06/12 10:26:56;;;;;;;4.25;2.03;;;;;;;22.98;49.80;100079.38;5093771;28;20048;-64
2023/06/12 10:29:30;;;;;;;4.05;1.95;;;;;;;22.99;50.06;100083.81;5093895;28;20052;-65
2023/06/12 10:32:05;;;;;;;4.07;1.90;;;;;;;23.01;49.45;100079.03;5093788;28;20052;-64
2023/06/12 10:34:34;;;;;;;6.43;2.00;;;;;;;23.02;49.07;100072.56;5093814;28;20127;-65
2023/06/12 10:37:23;;;;;;;3.90;2.20;;;;;;;23.04;49.06;100078.66;5093778;28;20070;-64
2023/06/12 10:40:07;;;;;;;4.45;2.00;;;;;;;23.08;49.20;100088.19;5093639;28;20052;-65
2023/06/12 10:42:43;;;;;;;5.85;1.83;;;;;;;23.09;49.31;100070.84;5093433;28;20079;-65
2023/06/12 10:45:21;;;;;;;5.10;2.17;;;;;;;23.13;49.54;100083.03;5093295;28;20468;-66
2023/06/12 10:48:12;;;;;;;4.25;2.00;;;;;;;23.14;49.54;100076.56;5093441;28;20136;-65
2023/06/12 10:50:44;;;;;;;3.67;1.83;;;;;;;23.17;49.59;100078.09;5093353;28;20485;-65
2023/06/12 10:53:15;;;;;;;4.95;1.90;;;;;;;23.19;49.40;100071.47;5093470;28;20324;-65
2023/06/12 10:55:43;;;;;;;4.28;2.13;;;;;;;23.21;48.96;100058.50;5092416;28;20090;-65
2023/06/12 10:58:14;;;;;;;3.92;2.00;;;;;;;23.23;48.84;100067.34;5092704;28;20044;-65
2023/06/12 11:00:48;;;;;;;3.28;1.80;;;;;;;23.26;48.90;100060.69;5092957;28;20044;-65
2023/06/12 11:03:18;;;;;;;3.13;1.60;;;;;;;23.27;48.89;100055.09;5093370;28;20135;-66
2023/06/12 11:05:48;;;;;;;4.57;2.00;;;;;;;23.29;49.02;100050.31;5093185;28;20408;-66
2023/06/12 11:08:16;;;;;;;3.45;1.70;;;;;;;23.32;48.64;100051.81;5093196;28;20056;-65
2023/06/12 11:10:45;;;;;;;3.75;2.10;;;;;;;23.34;47.67;100050.59;5092910;28;20051;-65
2023/06/12 11:13:13;;;;;;;5.05;1.88;;;;;;;23.37;46.92;100044.81;5092996;28;20055;-65
2023/06/12 11:15:43;;;;;;;4.53;2.05;;;;;;;23.41;46.50;100054.31;5092984;28;20059;-65
2023/06/12 11:18:14;;;;;;;6.43;2.08;;;;;;;23.43;46.14;100044.09;5092763;28;20425;-66
2023/06/12 11:20:42;;;;;;;4.28;2.20;;;;;;;23.46;46.92;100039.34;5092826;28;20070;-65
2023/06/12 11:23:12;;;;;;;5.57;2.00;;;;;;;23.49;47.35;100038.97;5092932;28;20403;-65
2023/06/12 11:25:44;;;;;;;4.38;2.00;;;;;;;23.52;47.46;100038.59;5092781;28;20052;-65
2023/06/12 11:28:13;;;;;;;5.05;1.95;;;;;;;23.53;47.28;100037.56;5092991;28;20070;-65
2023/06/12 11:30:46;;;;;;;2.97;1.75;;;;;;;23.57;47.53;100028.03;5092560;28;20518;-65
2023/06/12 11:33:35;;;;;;;3.13;1.92;;;;;;;23.59;46.95;100034.16;5092422;28;20139;-65
2023/06/12 11:36:04;;;;;;;3.15;1.88;;;;;;;23.62;46.69;100033.78;5091988;28;20412;-65